Flor Da Beira — CUBD4 — position and weather

sailwx.info

Track history (hours):
 
Tides and Currents Weather Stations Pressure Air Temp Water Temp Dewpoint Dewpoint Depression Visibility Wind Speed Wind Dir Waves Ship Positions

Flor Da Beira

Last reported at 2018-Apr-17 10:28 UTC. Time now 2018-Apr-22 21:56 UTC.
Position N 36°59' W 008°11'.

Length 23 m.

Type: Fishing. MMSI: 263408350.

Date/timePositionNaut miles runAvg speedWind from/ knotsBaromVisibWave heightAir tempDewpointWater temp
2018-Apr-17 10:28N 36°59' W 008°11'2 5.1
2018-Apr-17 10:00N 36°59' W 008°14'5 9.8
2018-Apr-17 09:30N 36°59' W 008°20'5 9.6
2018-Apr-17 09:00N 36°59' W 008°26'5 9.6
2018-Apr-17 08:30N 36°59' W 008°33'9 9.7
2018-Apr-17 07:36N 36°59' W 008°43'1 9.8
2018-Apr-17 07:30N 36°59' W 008°45'41 6.9
2018-Apr-17 01:32N 37°39' W 008°56'1 8.0
2018-Apr-17 01:26N 37°40' W 008°56'4 8.0
2018-Apr-17 01:00N 37°44' W 008°56'4 8.1
2018-Apr-17 00:30N 37°48' W 008°55'4 8.1
2018-Apr-17 00:00N 37°52' W 008°55'4 8.2
2018-Apr-16 23:30N 37°56' W 008°55'4 7.3
2018-Apr-16 23:00N 37°59' W 008°54'3 6.5
2018-Apr-16 22:30N 38°02' W 008°51'1 1.4
2018-Apr-16 22:00N 38°02' W 008°52'1 2.5
2018-Apr-16 21:30N 38°03' W 008°50'3 5.9
2018-Apr-16 20:59N 38°06' W 008°50'3 7.1
2018-Apr-16 20:30N 38°09' W 008°52'4 8.7
2018-Apr-16 20:00N 38°13' W 008°54'5 9.0
2018-Apr-16 19:30N 38°17' W 008°57'4 9.0
2018-Apr-16 19:00N 38°21' W 009°00'4 8.2
2018-Apr-16 18:30N 38°24' W 009°03'3 0.5
2018-Apr-16 11:36N 38°26' W 009°07'0 0.0
2018-Apr-16 11:28N 38°26' W 009°07'0 0.0
2018-Apr-16 10:59N 38°26' W 009°07'0 0.0
2018-Apr-16 10:29N 38°26' W 009°07'0 0.0
2018-Apr-16 09:56N 38°26' W 009°07'0 0.0
2018-Apr-16 09:20N 38°26' W 009°07'0 0.0
2018-Apr-16 09:00N 38°26' W 009°07'0 0.0
2018-Apr-16 08:29N 38°26' W 009°07'0 0.0
2018-Apr-16 07:57N 38°26' W 009°07'0 0.0
2018-Apr-16 07:10N 38°26' W 009°07'5 7.4
2018-Apr-16 06:27N 38°24' W 009°13'4 9.0
2018-Apr-16 05:59N 38°28' W 009°16'5 9.6
2018-Apr-16 05:30N 38°32' W 009°18'2 3.5
2018-Apr-16 04:51N 38°34' W 009°19'0 0.4
2018-Apr-16 04:30N 38°34' W 009°19'0 0.1
2018-Apr-16 03:59N 38°34' W 009°19'1 1.8
2018-Apr-16 03:29N 38°35' W 009°20'3 6.7
2018-Apr-16 03:00N 38°33' W 009°16'3 5.8
2018-Apr-16 02:30N 38°32' W 009°13'2 3.6
2018-Apr-16 02:00N 38°31' W 009°14'0 0.7
2018-Apr-16 01:30N 38°31' W 009°13'2 2.9
2018-Apr-16 00:57N 38°32' W 009°14'3 6.8
2018-Apr-16 00:30N 38°33' W 009°18'4 8.4
2018-Apr-16 00:00N 38°36' W 009°21'4 8.0
2018-Apr-15 23:30N 38°40' W 009°23'4 7.8
2018-Apr-15 22:57N 38°35' W 009°22'3 5.9
2018-Apr-15 22:26N 38°34' W 009°18'4 8.3
2018-Apr-15 21:59N 38°31' W 009°16'6 8.2
2018-Apr-15 21:17N 38°25' W 009°15'5 7.9
2018-Apr-15 20:42N 38°25' W 009°09'2 8.8
2018-Apr-15 20:30N 38°26' W 009°07'1 0.2
2018-Apr-15 16:37N 38°26' W 009°07'0 0.0
2018-Apr-15 16:27N 38°26' W 009°07'  
Track history (hours):
 
Tides and Currents Weather Stations Pressure Air Temp Water Temp Dewpoint Dewpoint Depression Visibility Wind Speed Wind Dir Waves Ship Positions

Flor Da Beira

Last reported at 2018-Apr-17 10:28 UTC. Time now 2018-Apr-22 21:56 UTC.
Position N 36°59' W 008°11'.

Length 23 m.

Type: Fishing. MMSI: 263408350.

Date/timePositionNaut miles runAvg speedWind from/ knotsBaromVisibWave heightAir tempDewpointWater temp
2018-Apr-17 10:28N 36°59' W 008°11'2 5.1
2018-Apr-17 10:00N 36°59' W 008°14'5 9.8
2018-Apr-17 09:30N 36°59' W 008°20'5 9.6
2018-Apr-17 09:00N 36°59' W 008°26'5 9.6
2018-Apr-17 08:30N 36°59' W 008°33'9 9.7
2018-Apr-17 07:36N 36°59' W 008°43'1 9.8
2018-Apr-17 07:30N 36°59' W 008°45'41 6.9
2018-Apr-17 01:32N 37°39' W 008°56'1 8.0
2018-Apr-17 01:26N 37°40' W 008°56'4 8.0
2018-Apr-17 01:00N 37°44' W 008°56'4 8.1
2018-Apr-17 00:30N 37°48' W 008°55'4 8.1
2018-Apr-17 00:00N 37°52' W 008°55'4 8.2
2018-Apr-16 23:30N 37°56' W 008°55'4 7.3
2018-Apr-16 23:00N 37°59' W 008°54'3 6.5
2018-Apr-16 22:30N 38°02' W 008°51'1 1.4
2018-Apr-16 22:00N 38°02' W 008°52'1 2.5
2018-Apr-16 21:30N 38°03' W 008°50'3 5.9
2018-Apr-16 20:59N 38°06' W 008°50'3 7.1
2018-Apr-16 20:30N 38°09' W 008°52'4 8.7
2018-Apr-16 20:00N 38°13' W 008°54'5 9.0
2018-Apr-16 19:30N 38°17' W 008°57'4 9.0
2018-Apr-16 19:00N 38°21' W 009°00'4 8.2
2018-Apr-16 18:30N 38°24' W 009°03'3 0.5
2018-Apr-16 11:36N 38°26' W 009°07'0 0.0
2018-Apr-16 11:28N 38°26' W 009°07'0 0.0
2018-Apr-16 10:59N 38°26' W 009°07'0 0.0
2018-Apr-16 10:29N 38°26' W 009°07'0 0.0
2018-Apr-16 09:56N 38°26' W 009°07'0 0.0
2018-Apr-16 09:20N 38°26' W 009°07'0 0.0
2018-Apr-16 09:00N 38°26' W 009°07'0 0.0
2018-Apr-16 08:29N 38°26' W 009°07'0 0.0
2018-Apr-16 07:57N 38°26' W 009°07'0 0.0
2018-Apr-16 07:10N 38°26' W 009°07'5 7.4
2018-Apr-16 06:27N 38°24' W 009°13'4 9.0
2018-Apr-16 05:59N 38°28' W 009°16'5 9.6
2018-Apr-16 05:30N 38°32' W 009°18'2 3.5
2018-Apr-16 04:51N 38°34' W 009°19'0 0.4
2018-Apr-16 04:30N 38°34' W 009°19'0 0.1
2018-Apr-16 03:59N 38°34' W 009°19'1 1.8
2018-Apr-16 03:29N 38°35' W 009°20'3 6.7
2018-Apr-16 03:00N 38°33' W 009°16'3 5.8
2018-Apr-16 02:30N 38°32' W 009°13'2 3.6
2018-Apr-16 02:00N 38°31' W 009°14'0 0.7
2018-Apr-16 01:30N 38°31' W 009°13'2 2.9
2018-Apr-16 00:57N 38°32' W 009°14'3 6.8
2018-Apr-16 00:30N 38°33' W 009°18'4 8.4
2018-Apr-16 00:00N 38°36' W 009°21'4 8.0
2018-Apr-15 23:30N 38°40' W 009°23'4 7.8
2018-Apr-15 22:57N 38°35' W 009°22'3 5.9
2018-Apr-15 22:26N 38°34' W 009°18'4 8.3
2018-Apr-15 21:59N 38°31' W 009°16'6 8.2
2018-Apr-15 21:17N 38°25' W 009°15'5 7.9
2018-Apr-15 20:42N 38°25' W 009°09'2 8.8
2018-Apr-15 20:30N 38°26' W 009°07'1 0.2
2018-Apr-15 16:37N 38°26' W 009°07'0 0.0
2018-Apr-15 16:27N 38°26' W 009°07'  

Dump ship's entire track history